Wingate, Indiana
Current Conditions -  °F | °C
As of 5:54 PM on Friday 28 Nov 2014 (Local Time) from KLAF Reporting Station
Clear Clear  
Wind Chill: -4°   Ceiling: Unl
Heat Index:   Visibility: 10mi
Dew Point: -5°   Wind: 10mph
Humidity: 66%   Direction: 170°S
Pressure: 30.05"   Gusts: NA
Location:  40.17°N, 87.07°W
Report Text: KLAF 282254Z 17009KT 10SM CLR 01/M05 A3005 RMK AO2 SLP181 T00061050
Loading
Personal Weather Stations






























Interactive Weather Map New forecast layout! Learn more

10-Day Weather Forecast

Advertisements
Track Severe Weather on mobile